Casar, North Carolina
Current Conditions -  °F | °C
As of 2:35 PM on Monday 22 Dec 2014 (Local Time) from KEHO Reporting Station
Haze Haze  
Wind Chill: 32°   Ceiling: 500
Heat Index: 38°   Visibility: 4mi
Dew Point: 37°   Wind: 9mph
Humidity: 95%   Direction: 20°NNE
Pressure: 30.03"   Gusts: NA
Location:  35.51°N, 81.62°W
Report Text: KEHO 221935Z AUTO 02008KT 4SM BR OVC005 03/03 A3003 RMK AO2 T00340027
Loading
Personal Weather Stations






























Interactive Weather Map New forecast layout! Learn more

10-Day Weather Forecast

Advertisements
Track Severe Weather on mobile